createdAt,value
2018-12-18T00:01:32.914Z,102075.69
2018-12-18T00:04:00.511Z,102076.41
2018-12-18T00:06:28.135Z,102074.07
2018-12-18T00:08:55.727Z,102076.27
2018-12-18T00:11:23.344Z,102077.52
2018-12-18T00:13:50.934Z,102084.62
2018-12-18T00:16:18.552Z,102077.16
2018-12-18T00:18:46.146Z,102078.50
2018-12-18T00:21:13.768Z,102082.55
2018-12-18T00:23:41.354Z,102081.07
2018-12-18T00:26:08.975Z,102081.82
2018-12-18T00:28:36.564Z,102085.73
2018-12-18T00:31:04.179Z,102087.44
2018-12-18T00:33:31.768Z,102084.25
2018-12-18T00:35:59.462Z,102090.75
2018-12-18T00:38:27.054Z,102097.89
2018-12-18T00:40:54.642Z,102094.70
2018-12-18T00:43:22.253Z,102089.67
2018-12-18T00:45:50.132Z,102086.84
2018-12-18T00:48:17.751Z,102086.24
2018-12-18T00:50:45.347Z,102087.09
2018-12-18T00:53:12.965Z,102089.30
2018-12-18T00:55:40.554Z,102090.55
2018-12-18T00:58:08.171Z,102095.44
2018-12-18T01:00:35.763Z,102100.34
2018-12-18T01:03:03.372Z,102108.92
2018-12-18T01:05:30.962Z,102112.97
2018-12-18T01:07:58.580Z,102108.56
2018-12-18T01:10:26.171Z,102106.59
2018-12-18T01:12:53.787Z,102102.17
2018-12-18T01:15:21.381Z,102102.67
2018-12-18T01:17:48.993Z,102110.16
2018-12-18T01:20:16.583Z,102107.47
2018-12-18T01:22:44.200Z,102110.52
2018-12-18T01:25:11.789Z,102119.47
2018-12-18T01:27:39.407Z,102117.13
2018-12-18T01:30:06.998Z,102115.68
2018-12-18T01:32:34.611Z,102112.48
2018-12-18T01:35:02.203Z,102111.40
2018-12-18T01:37:29.813Z,102110.91
2018-12-18T01:39:57.411Z,102105.88
2018-12-18T01:42:25.023Z,102101.72
2018-12-18T01:44:52.618Z,102098.89
2018-12-18T01:47:20.231Z,102105.14
2018-12-18T01:49:47.826Z,102106.75
2018-12-18T01:52:15.447Z,102107.24
2018-12-18T01:54:43.040Z,102107.60
2018-12-18T01:57:10.663Z,102112.14
2018-12-18T02:02:47.557Z,102114.95
2018-12-18T02:05:15.152Z,102116.17
2018-12-18T02:07:42.771Z,102112.52
2018-12-18T02:10:10.368Z,102114.48
2018-12-18T02:12:37.986Z,102111.65
2018-12-18T02:15:05.825Z,102117.30
2018-12-18T02:17:33.547Z,102112.41
2018-12-18T02:20:01.143Z,102109.56
2018-12-18T02:22:28.735Z,102106.61
2018-12-18T02:27:55.063Z,102104.43
2018-12-18T02:30:22.659Z,102101.34
2018-12-18T02:32:50.308Z,102103.55
2018-12-18T02:35:17.906Z,102106.87
2018-12-18T02:37:45.764Z,102108.35
2018-12-18T02:40:13.380Z,102108.35
2018-12-18T02:42:40.981Z,102113.84
2018-12-18T02:45:08.780Z,102110.06
2018-12-18T02:47:36.377Z,102112.88
2018-12-18T02:50:05.050Z,102120.49
2018-12-18T02:52:32.644Z,102124.17
2018-12-18T02:55:00.267Z,102120.49
2018-12-18T02:57:27.865Z,102120.12
2018-12-18T02:59:55.623Z,102119.38
2018-12-18T03:02:23.215Z,102124.64
2018-12-18T03:04:50.832Z,102119.73
2018-12-18T03:07:18.417Z,102126.84
2018-12-18T03:09:46.034Z,102122.06
2018-12-18T03:12:13.628Z,102122.95
2018-12-18T03:14:41.257Z,102121.46
2018-12-18T03:17:08.854Z,102125.87
2018-12-18T03:19:36.473Z,102125.27
2018-12-18T03:22:04.163Z,102119.02
2018-12-18T03:24:31.783Z,102128.33
2018-12-18T03:26:59.379Z,102128.08
2018-12-18T03:29:27.238Z,102133.95
2018-12-18T03:31:55.621Z,102127.95
2018-12-18T03:34:28.254Z,102123.66
2018-12-18T03:36:52.864Z,102119.37
2018-12-18T03:39:20.459Z,102128.08
2018-12-18T03:41:48.073Z,102129.64
2018-12-18T03:44:15.668Z,102130.75
2018-12-18T03:46:43.284Z,102123.00
2018-12-18T03:49:10.885Z,102123.61
2018-12-18T03:51:38.508Z,102126.92
2018-12-18T03:54:06.102Z,102123.62
2018-12-18T03:56:33.728Z,102121.17
2018-12-18T03:59:01.331Z,102124.22
2018-12-18T04:01:28.966Z,102123.23
2018-12-18T04:03:56.579Z,102117.22
2018-12-18T04:06:24.208Z,102119.29
2018-12-18T04:08:51.807Z,102115.23
2018-12-18T04:11:19.435Z,102120.64
2018-12-18T04:13:47.115Z,102116.98
2018-12-18T04:16:14.739Z,102111.44
2018-12-18T04:18:42.421Z,102120.53
2018-12-18T04:21:10.044Z,102113.53
2018-12-18T04:23:37.646Z,102118.30
2018-12-18T04:26:05.263Z,102122.70
2018-12-18T04:28:32.858Z,102126.75
2018-12-18T04:31:00.470Z,102121.98
2018-12-18T04:33:28.064Z,102121.13
2018-12-18T04:35:55.685Z,102127.03
2018-12-18T04:38:23.291Z,102129.34
2018-12-18T04:40:50.895Z,102131.09
2018-12-18T04:43:18.515Z,102128.60
2018-12-18T04:45:46.111Z,102129.20
2018-12-18T04:48:13.727Z,102129.56
2018-12-18T04:50:41.323Z,102138.05
2018-12-18T04:53:08.946Z,102135.36
2018-12-18T04:55:36.549Z,102131.41
2018-12-18T04:58:04.165Z,102139.27
2018-12-18T05:00:31.768Z,102144.06
2018-12-18T05:02:59.387Z,102144.92
2018-12-18T05:05:26.992Z,102143.32
2018-12-18T05:07:54.614Z,102146.05
2018-12-18T05:10:22.215Z,102145.66
2018-12-18T05:12:49.840Z,102149.47
2018-12-18T05:15:17.442Z,102144.56
2018-12-18T05:17:45.060Z,102146.98
2018-12-18T05:20:12.683Z,102151.42
2018-12-18T05:22:40.311Z,102151.78
2018-12-18T05:25:07.908Z,102152.39
2018-12-18T05:27:35.527Z,102153.88
2018-12-18T05:30:03.209Z,102156.72
2018-12-18T05:32:30.838Z,102161.98
2018-12-18T05:34:58.440Z,102162.84
2018-12-18T05:37:26.060Z,102163.83
2018-12-18T05:39:53.655Z,102166.39
2018-12-18T05:42:21.275Z,102165.79
2018-12-18T05:44:48.878Z,102169.59
2018-12-18T05:47:16.501Z,102164.05
2018-12-18T05:49:44.099Z,102166.64
2018-12-18T05:52:11.726Z,102166.75
2018-12-18T05:54:39.341Z,102165.39
2018-12-18T05:57:06.945Z,102165.75
2018-12-18T05:59:34.564Z,102164.41
2018-12-18T06:02:02.160Z,102171.16
2018-12-18T06:04:29.774Z,102167.85
2018-12-18T06:06:57.383Z,102170.41
2018-12-18T06:09:25.004Z,102168.95
2018-12-18T06:11:52.603Z,102173.11
2018-12-18T06:14:20.227Z,102176.42
2018-12-18T06:16:47.829Z,102183.89
2018-12-18T06:19:15.451Z,102183.03
2018-12-18T06:21:43.050Z,102195.20
2018-12-18T06:24:10.672Z,102185.63
2018-12-18T06:26:38.283Z,102178.63
2018-12-18T06:29:05.906Z,102183.31
2018-12-18T06:31:33.510Z,102182.46
2018-12-18T06:34:01.128Z,102195.73
2018-12-18T06:36:28.725Z,102193.13
2018-12-18T06:38:56.344Z,102194.62
2018-12-18T06:41:23.942Z,102199.64
2018-12-18T06:43:51.648Z,102197.93
2018-12-18T06:46:19.247Z,102196.83
2018-12-18T06:48:46.954Z,102194.98
2018-12-18T06:51:14.569Z,102193.63
2018-12-18T06:53:42.189Z,102195.23
2018-12-18T06:56:09.778Z,102200.42
2018-12-18T06:58:37.398Z,102202.73
2018-12-18T07:01:05.074Z,102210.13
2018-12-18T07:03:32.704Z,102201.41
2018-12-18T07:06:00.301Z,102201.16
2018-12-18T07:08:27.920Z,102207.55
2018-12-18T07:10:55.514Z,102212.57
2018-12-18T07:13:23.272Z,102215.52
2018-12-18T07:15:50.871Z,102224.88
2018-12-18T07:18:18.492Z,102232.09
2018-12-18T07:20:46.114Z,102226.22
2018-12-18T07:23:13.735Z,102223.52
2018-12-18T07:25:41.331Z,102218.12
2018-12-18T07:28:08.954Z,102219.83
2018-12-18T07:30:36.639Z,102226.58
2018-12-18T07:33:04.244Z,102224.88
2018-12-18T07:35:31.863Z,102231.62
2018-12-18T07:37:59.535Z,102228.67
2018-12-18T07:40:27.215Z,102231.38
2018-12-18T07:42:54.811Z,102232.37
2018-12-18T07:45:22.429Z,102231.38
2018-12-18T07:47:50.029Z,102233.44
2018-12-18T07:50:17.652Z,102237.89
2018-12-18T07:52:45.247Z,102236.89
2018-12-18T07:55:12.870Z,102242.91
2018-12-18T07:57:40.463Z,102245.61
2018-12-18T08:00:08.167Z,102246.36
2018-12-18T08:02:35.801Z,102255.81
2018-12-18T08:05:03.422Z,102252.22
2018-12-18T08:07:31.017Z,102247.56
2018-12-18T08:09:58.638Z,102250.63
2018-12-18T08:12:26.236Z,102246.94
2018-12-18T08:14:53.856Z,102258.13
2018-12-18T08:17:21.450Z,102260.20
2018-12-18T08:19:49.080Z,102255.19
2018-12-18T08:22:16.679Z,102257.39
2018-12-18T08:24:44.299Z,102250.85
2018-12-18T08:27:11.896Z,102254.66
2018-12-18T08:29:40.172Z,102252.81
2018-12-18T08:32:07.763Z,102253.31
2018-12-18T08:34:35.379Z,102254.30
2018-12-18T08:37:02.980Z,102256.86
2018-12-18T08:39:30.595Z,102260.45
2018-12-18T08:41:58.191Z,102257.36
2018-12-18T08:44:25.811Z,102252.70
2018-12-18T08:46:53.418Z,102259.95
2018-12-18T08:49:21.038Z,102265.33
2018-12-18T08:51:48.631Z,102263.34
2018-12-18T08:54:16.261Z,102256.70
2018-12-18T08:56:43.860Z,102263.56
2018-12-18T08:59:11.474Z,102258.62
2018-12-18T09:01:39.070Z,102262.67
2018-12-18T09:04:06.691Z,102268.58
2018-12-18T09:06:34.291Z,102272.48
2018-12-18T09:09:01.921Z,102267.12
2018-12-18T09:11:29.518Z,102273.98
2018-12-18T09:13:57.132Z,102276.69
2018-12-18T09:16:30.365Z,102276.80
2018-12-18T09:18:58.056Z,102277.41
2018-12-18T09:21:25.739Z,102274.09
2018-12-18T09:23:53.336Z,102271.59
2018-12-18T09:26:20.953Z,102272.30
2018-12-18T09:28:48.547Z,102275.11
2018-12-18T09:31:16.168Z,102269.83
2018-12-18T09:33:43.764Z,102271.30
2018-12-18T09:36:11.372Z,102276.69
2018-12-18T09:38:44.518Z,102273.83
2018-12-18T09:41:17.922Z,102271.72
2018-12-18T09:43:51.257Z,102263.44
2018-12-18T09:46:18.871Z,102264.98
2018-12-18T09:48:46.460Z,102269.23
2018-12-18T09:51:14.072Z,102260.36
2018-12-18T09:53:41.660Z,102257.23
2018-12-18T09:56:09.274Z,102258.50
2018-12-18T09:58:36.875Z,102263.67
2018-12-18T10:01:04.491Z,102253.25
2018-12-18T10:03:33.602Z,102260.62
2018-12-18T10:06:01.548Z,102256.55
2018-12-18T10:08:29.136Z,102239.38
2018-12-18T10:10:56.760Z,102248.19
2018-12-18T10:13:24.359Z,102243.76
2018-12-18T10:15:51.982Z,102242.61
2018-12-18T10:18:19.574Z,102243.84
2018-12-18T10:20:47.182Z,102242.73
2018-12-18T10:23:14.863Z,102240.64
2018-12-18T10:25:42.486Z,102233.25
2018-12-18T10:28:10.083Z,102234.44
2018-12-18T10:30:37.692Z,102232.52
2018-12-18T10:33:05.363Z,102224.39
2018-12-18T10:35:36.596Z,102230.13
2018-12-18T10:38:02.603Z,102218.09
2018-12-18T10:40:30.238Z,102223.72
2018-12-18T10:42:57.836Z,102216.94
2018-12-18T10:45:25.418Z,102216.64
2018-12-18T10:47:53.038Z,102217.39
2018-12-18T10:50:20.635Z,102219.56
2018-12-18T10:52:48.254Z,102212.14
2018-12-18T10:55:15.845Z,102212.22
2018-12-18T10:57:43.459Z,102212.14
2018-12-18T11:00:13.549Z,102203.67
2018-12-18T11:02:41.165Z,102204.78
2018-12-18T11:05:08.751Z,102197.03
2018-12-18T11:07:36.363Z,102193.97
2018-12-18T11:10:04.715Z,102191.83
2018-12-18T11:12:37.815Z,102193.25
2018-12-18T11:15:05.576Z,102194.27
2018-12-18T11:17:33.195Z,102187.76
2018-12-18T11:20:00.786Z,102183.59
2018-12-18T11:22:28.395Z,102182.31
2018-12-18T11:24:55.986Z,102185.81
2018-12-18T11:27:23.603Z,102183.83
2018-12-18T11:29:51.192Z,102183.17
2018-12-18T11:32:18.814Z,102176.27
2018-12-18T11:34:46.400Z,102173.91
2018-12-18T11:37:14.013Z,102166.86
2018-12-18T11:39:41.623Z,102167.48
2018-12-18T11:42:09.235Z,102165.77
2018-12-18T11:44:36.828Z,102168.48
2018-12-18T11:47:04.475Z,102165.89
2018-12-18T11:49:32.172Z,102160.62
2018-12-18T11:51:59.760Z,102168.19
2018-12-18T11:54:27.373Z,102165.32
2018-12-18T11:56:54.966Z,102174.46
2018-12-18T11:59:22.578Z,102175.01
2018-12-18T12:01:50.167Z,102183.37
2018-12-18T12:04:17.785Z,102184.22
2018-12-18T12:06:45.377Z,102178.25
2018-12-18T12:09:12.989Z,102175.77
2018-12-18T12:11:40.579Z,102177.82
2018-12-18T12:14:08.200Z,102179.05
2018-12-18T12:16:35.793Z,102162.91
2018-12-18T12:19:03.406Z,102161.36
2018-12-18T12:21:30.995Z,102166.47
2018-12-18T12:23:58.607Z,102153.88
2018-12-18T12:26:31.851Z,102145.02
2018-12-18T12:28:59.466Z,102136.11
2018-12-18T12:31:27.059Z,102133.80
2018-12-18T12:33:54.662Z,102126.67
2018-12-18T12:36:22.257Z,102128.87
2018-12-18T12:38:49.873Z,102126.73
2018-12-18T12:41:17.470Z,102129.03
2018-12-18T12:43:45.091Z,102120.33
2018-12-18T12:46:12.680Z,102124.52
2018-12-18T12:48:45.838Z,102127.75
2018-12-18T12:51:13.439Z,102131.64
2018-12-18T12:53:41.043Z,102127.15
2018-12-18T12:56:08.631Z,102120.23
2018-12-18T12:58:36.247Z,102129.30
2018-12-18T13:01:03.840Z,102121.73
2018-12-18T13:03:31.455Z,102125.89
2018-12-18T13:05:59.043Z,102117.80
2018-12-18T13:08:26.635Z,102116.72
2018-12-18T13:10:54.247Z,102113.06
2018-12-18T13:13:21.849Z,102106.12
2018-12-18T13:15:49.460Z,102109.50
2018-12-18T13:18:17.050Z,102108.36
2018-12-18T13:20:44.669Z,102108.30
2018-12-18T13:23:12.268Z,102111.48
2018-12-18T13:25:39.884Z,102106.04
2018-12-18T13:28:07.477Z,102111.76
2018-12-18T13:30:35.094Z,102112.66
2018-12-18T13:33:02.679Z,102110.81
2018-12-18T13:35:30.302Z,102113.45
2018-12-18T13:37:57.976Z,102108.16
2018-12-18T13:40:25.587Z,102106.95
2018-12-18T13:42:53.187Z,102102.31
2018-12-18T13:45:20.802Z,102102.73
2018-12-18T13:47:48.396Z,102085.25
2018-12-18T13:50:16.007Z,102094.34
2018-12-18T13:52:43.614Z,102089.52
2018-12-18T13:55:11.232Z,102085.38
2018-12-18T13:57:38.825Z,102080.34
2018-12-18T14:00:06.539Z,102085.09
2018-12-18T14:02:34.131Z,102092.91
2018-12-18T14:05:01.762Z,102091.97
2018-12-18T14:07:29.368Z,102098.50
2018-12-18T14:09:56.990Z,102098.77
2018-12-18T14:12:24.596Z,102093.27
2018-12-18T14:14:53.086Z,102084.21
2018-12-18T14:17:20.706Z,102080.44
2018-12-18T14:19:48.339Z,102080.91
2018-12-18T14:22:15.967Z,102079.31
2018-12-18T14:24:43.621Z,102082.38
2018-12-18T14:27:11.221Z,102084.80
2018-12-18T14:29:38.857Z,102094.30
2018-12-18T14:32:06.539Z,102093.12
2018-12-18T14:34:34.184Z,102088.80
2018-12-18T14:37:01.792Z,102089.09
2018-12-18T14:39:29.394Z,102089.65
2018-12-18T14:41:57.012Z,102090.17
2018-12-18T14:44:32.115Z,102092.30
2018-12-18T14:46:59.734Z,102091.76
2018-12-18T14:49:27.330Z,102091.77
2018-12-18T14:51:54.942Z,102087.02
2018-12-18T14:54:22.571Z,102087.94
2018-12-18T14:56:50.213Z,102082.08
2018-12-18T14:59:18.275Z,102079.00
2018-12-18T15:01:45.890Z,102064.63
2018-12-18T15:04:13.562Z,102062.44
2018-12-18T15:06:41.243Z,102066.16
2018-12-18T15:09:08.839Z,102067.23
2018-12-18T15:11:36.536Z,102067.49
2018-12-18T15:14:04.211Z,102077.61
2018-12-18T15:16:31.836Z,102083.67
2018-12-18T15:18:59.431Z,102080.63
2018-12-18T15:21:27.047Z,102084.34
2018-12-18T15:23:54.647Z,102083.08
2018-12-18T15:26:22.263Z,102081.17
2018-12-18T15:28:49.857Z,102081.45
2018-12-18T15:31:17.470Z,102082.30
2018-12-18T15:33:45.066Z,102077.48
2018-12-18T15:36:12.682Z,102077.33
2018-12-18T15:38:40.272Z,102094.04
2018-12-18T15:41:07.897Z,102088.38
2018-12-18T15:43:35.500Z,102091.78
2018-12-18T15:46:03.118Z,102092.64
2018-12-18T15:48:30.722Z,102089.81
2018-12-18T15:50:58.340Z,102095.93
2018-12-18T15:53:25.929Z,102099.23
2018-12-18T15:55:53.544Z,102103.44
2018-12-18T15:58:21.152Z,102108.48
2018-12-18T16:00:48.791Z,102106.75
2018-12-18T16:03:17.122Z,102111.45
2018-12-18T16:05:45.019Z,102110.45
2018-12-18T16:08:12.616Z,102104.90
2018-12-18T16:10:40.241Z,102108.10
2018-12-18T16:13:07.833Z,102105.40
2018-12-18T16:15:35.449Z,102110.80
2018-12-18T16:18:03.042Z,102116.72
2018-12-18T16:20:30.840Z,102112.16
2018-12-18T16:22:58.436Z,102104.69
2018-12-18T16:25:26.035Z,102103.78
2018-12-18T16:27:53.650Z,102103.52
2018-12-18T16:30:21.242Z,102105.73
2018-12-18T16:32:48.867Z,102112.14
2018-12-18T16:35:16.463Z,102109.44
2018-12-18T16:37:44.080Z,102101.73
2018-12-18T16:40:11.683Z,102109.53
2018-12-18T16:42:39.304Z,102109.29
2018-12-18T16:45:07.163Z,102107.23
2018-12-18T16:47:34.787Z,102102.79
2018-12-18T16:50:02.382Z,102104.14
2018-12-18T16:52:30.005Z,102106.47
2018-12-18T16:54:57.605Z,102095.27
2018-12-18T16:57:25.262Z,102088.80
2018-12-18T16:59:52.857Z,102084.00
2018-12-18T17:02:20.861Z,102079.20
2018-12-18T17:04:48.477Z,102074.80
2018-12-18T17:07:16.123Z,102069.14
2018-12-18T17:09:43.717Z,102069.70
2018-12-18T17:12:11.331Z,102071.83
2018-12-18T17:14:39.363Z,102067.34
2018-12-18T17:17:07.014Z,102063.00
2018-12-18T17:19:34.611Z,102067.11
2018-12-18T17:22:02.234Z,102069.47
2018-12-18T17:24:29.828Z,102069.23
2018-12-18T17:26:57.441Z,102070.37
2018-12-18T17:29:25.037Z,102072.83
2018-12-18T17:31:52.656Z,102069.21
2018-12-18T17:34:20.702Z,102054.96
2018-12-18T17:36:48.349Z,102048.21
2018-12-18T17:39:15.943Z,102055.36
2018-12-18T17:41:43.567Z,102059.80
2018-12-18T17:44:11.165Z,102056.84
2018-12-18T17:46:38.796Z,102055.61
2018-12-18T17:49:06.488Z,102058.95
2018-12-18T17:51:34.077Z,102053.41
2018-12-18T17:54:01.699Z,102040.01
2018-12-18T17:56:29.292Z,102044.80
2018-12-18T17:58:56.907Z,102045.09
2018-12-18T18:01:24.578Z,102047.05
2018-12-18T18:03:52.205Z,102040.64
2018-12-18T18:06:19.795Z,102042.85
2018-12-18T18:08:47.410Z,102043.35
2018-12-18T18:11:15.004Z,102048.29
2018-12-18T18:13:42.620Z,102053.83
2018-12-18T18:16:10.208Z,102048.70
2018-12-18T18:18:37.830Z,102041.93
2018-12-18T18:21:05.424Z,102037.77
2018-12-18T18:23:33.036Z,102030.28
2018-12-18T18:26:00.718Z,102034.58
2018-12-18T18:28:28.339Z,102023.53
2018-12-18T18:30:55.928Z,102023.88
2018-12-18T18:33:23.572Z,102017.38
2018-12-18T18:35:51.176Z,102002.04
2018-12-18T18:38:18.809Z,102006.44
2018-12-18T18:40:46.450Z,102007.23
2018-12-18T18:43:14.126Z,102008.22
2018-12-18T18:45:41.731Z,102003.70
2018-12-18T18:48:09.354Z,101998.31
2018-12-18T18:50:36.955Z,101999.55
2018-12-18T18:53:04.566Z,102000.65
2018-12-18T18:55:32.167Z,102007.03
2018-12-18T18:57:59.790Z,102003.62
2018-12-18T19:00:27.384Z,102004.36
2018-12-18T19:02:54.998Z,102002.40
2018-12-18T19:05:22.589Z,101996.04
2018-12-18T19:07:56.274Z,101995.55
2018-12-18T19:10:20.011Z,101993.36
2018-12-18T19:12:47.607Z,101991.02
2018-12-18T19:15:15.223Z,101994.30
2018-12-18T19:17:42.820Z,101993.09
2018-12-18T19:20:10.440Z,101998.12
2018-12-18T19:22:38.031Z,102001.45
2018-12-18T19:25:05.873Z,101998.14
2018-12-18T19:27:33.474Z,101994.83
2018-12-18T19:30:02.190Z,101991.03
2018-12-18T19:32:29.851Z,101991.03
2018-12-18T19:34:57.464Z,101984.77
2018-12-18T19:37:25.066Z,101981.23
2018-12-18T19:39:52.969Z,101974.62
2018-12-18T19:42:20.644Z,101969.11
2018-12-18T19:44:48.344Z,101969.59
2018-12-18T19:47:16.022Z,101967.27
2018-12-18T19:49:43.640Z,101967.88
2018-12-18T19:52:11.234Z,101969.95
2018-12-18T19:54:38.851Z,101971.67
2018-12-18T19:57:06.443Z,101975.59
2018-12-18T19:59:34.057Z,101964.55
2018-12-18T20:02:01.653Z,101963.47
2018-12-18T20:04:29.271Z,101963.33
2018-12-18T20:06:56.855Z,101967.39
2018-12-18T20:09:24.481Z,101960.98
2018-12-18T20:11:52.988Z,101961.25
2018-12-18T20:14:20.629Z,101963.56
2018-12-18T20:16:48.220Z,101961.10
2018-12-18T20:19:15.840Z,101951.80
2018-12-18T20:21:43.428Z,101952.68
2018-12-18T20:24:11.068Z,101953.14
2018-12-18T20:26:38.658Z,101950.09
2018-12-18T20:29:06.250Z,101942.02
2018-12-18T20:31:33.864Z,101946.79
2018-12-18T20:34:01.459Z,101946.77
2018-12-18T20:36:29.076Z,101940.64
2018-12-18T20:38:56.668Z,101947.75
2018-12-18T20:41:24.276Z,101938.93
2018-12-18T20:43:51.881Z,101934.77
2018-12-18T20:46:19.505Z,101934.27
2018-12-18T20:48:47.104Z,101936.95
2018-12-18T20:51:14.712Z,101928.39
2018-12-18T20:53:42.305Z,101927.30
2018-12-18T20:56:09.928Z,101922.16
2018-12-18T20:58:37.531Z,101914.80
2018-12-18T21:01:05.148Z,101913.69
2018-12-18T21:03:32.748Z,101909.06
2018-12-18T21:06:00.370Z,101910.52
2018-12-18T21:08:27.977Z,101902.05
2018-12-18T21:10:55.600Z,101888.44
2018-12-18T21:13:30.500Z,101865.44
2018-12-18T21:15:58.260Z,101867.16
2018-12-18T21:18:25.857Z,101856.89
2018-12-18T21:20:53.452Z,101855.30
2018-12-18T21:23:21.062Z,101845.75
2018-12-18T21:25:48.658Z,101841.48
2018-12-18T21:28:16.277Z,101837.56
2018-12-18T21:30:43.866Z,101835.86
2018-12-18T21:33:11.487Z,101847.13
2018-12-18T21:35:39.098Z,101845.27
2018-12-18T21:38:06.712Z,101838.18
2018-12-18T21:40:34.311Z,101836.09
2018-12-18T21:43:01.927Z,101843.69
2018-12-18T21:45:29.521Z,101839.05
2018-12-18T21:47:57.141Z,101839.41
2018-12-18T21:50:24.733Z,101839.88
2018-12-18T21:52:52.334Z,101835.48
2018-12-18T21:55:19.934Z,101842.20
2018-12-18T21:57:47.547Z,101838.16
2018-12-18T22:00:15.137Z,101838.66
2018-12-18T22:02:42.768Z,101835.84
2018-12-18T22:05:10.362Z,101827.17
2018-12-18T22:07:38.072Z,101817.73
2018-12-18T22:10:07.316Z,101819.19
2018-12-18T22:12:34.931Z,101809.77
2018-12-18T22:15:02.531Z,101808.80
2018-12-18T22:17:30.150Z,101807.34
2018-12-18T22:19:57.744Z,101809.55
2018-12-18T22:22:25.371Z,101804.62
2018-12-18T22:24:52.966Z,101801.58
2018-12-18T22:27:20.558Z,101806.34
2018-12-18T22:29:48.177Z,101798.78
2018-12-18T22:32:15.767Z,101804.74
2018-12-18T22:34:43.381Z,101800.97
2018-12-18T22:37:10.968Z,101796.80
2018-12-18T22:39:38.593Z,101797.40
2018-12-18T22:42:06.192Z,101787.13
2018-12-18T22:44:33.809Z,101779.07
2018-12-18T22:47:01.398Z,101779.05
2018-12-18T22:49:29.018Z,101782.86
2018-12-18T22:51:56.616Z,101779.69
2018-12-18T22:54:24.227Z,101771.98
2018-12-18T22:56:51.818Z,101768.67
2018-12-18T22:59:19.431Z,101760.11
2018-12-18T23:01:47.099Z,101755.81
2018-12-18T23:04:14.708Z,101748.61
2018-12-18T23:06:42.391Z,101747.14
2018-12-18T23:09:11.987Z,101741.87
2018-12-18T23:11:39.582Z,101740.77
2018-12-18T23:14:07.199Z,101732.09
2018-12-18T23:16:34.796Z,101721.32
2018-12-18T23:19:02.423Z,101728.30
2018-12-18T23:21:30.015Z,101729.53
2018-12-18T23:23:57.609Z,101727.67
2018-12-18T23:26:25.365Z,101720.97
2018-12-18T23:28:52.950Z,101723.88
2018-12-18T23:31:20.568Z,101725.34
2018-12-18T23:33:48.159Z,101729.28
2018-12-18T23:36:15.773Z,101723.05
2018-12-18T23:38:43.372Z,101724.75
2018-12-18T23:41:10.991Z,101718.52
2018-12-18T23:43:38.581Z,101709.70
2018-12-18T23:46:06.196Z,101710.31
2018-12-18T23:48:39.569Z,101706.03
2018-12-18T23:51:03.620Z,101698.70
2018-12-18T23:53:31.211Z,101695.02
2018-12-18T23:55:58.828Z,101692.23
2018-12-18T23:58:26.423Z,101687.31
